sensor_id;sensor_type;location;lat;lon;timestamp;P1;durP1;ratioP1;P2;durP2;ratioP2
32094;SDS011;18608;53.688;10.748;2022-11-12T00:00:25;28.17;;;15.60;;
32094;SDS011;18608;53.688;10.748;2022-11-12T00:02:51;33.20;;;16.17;;
32094;SDS011;18608;53.688;10.748;2022-11-12T00:05:16;29.87;;;15.37;;
32094;SDS011;18608;53.688;10.748;2022-11-12T00:07:42;21.53;;;14.53;;
32094;SDS011;18608;53.688;10.748;2022-11-12T00:10:08;25.40;;;14.27;;
32094;SDS011;18608;53.688;10.748;2022-11-12T00:12:34;23.80;;;14.33;;
32094;SDS011;18608;53.688;10.748;2022-11-12T00:15:00;24.93;;;15.63;;
32094;SDS011;18608;53.688;10.748;2022-11-12T00:17:26;29.73;;;14.70;;
32094;SDS011;18608;53.688;10.748;2022-11-12T00:19:51;28.40;;;14.63;;
32094;SDS011;18608;53.688;10.748;2022-11-12T00:22:18;26.40;;;14.33;;
32094;SDS011;18608;53.688;10.748;2022-11-12T00:24:44;26.90;;;15.13;;
32094;SDS011;18608;53.688;10.748;2022-11-12T00:27:10;23.50;;;14.70;;
32094;SDS011;18608;53.688;10.748;2022-11-12T00:29:36;27.40;;;15.50;;
32094;SDS011;18608;53.688;10.748;2022-11-12T00:32:03;29.83;;;15.77;;
32094;SDS011;18608;53.688;10.748;2022-11-12T00:34:30;23.17;;;14.50;;
32094;SDS011;18608;53.688;10.748;2022-11-12T00:36:56;27.13;;;14.20;;
32094;SDS011;18608;53.688;10.748;2022-11-12T00:39:22;25.43;;;14.80;;
32094;SDS011;18608;53.688;10.748;2022-11-12T00:41:47;34.90;;;15.13;;
32094;SDS011;18608;53.688;10.748;2022-11-12T00:44:13;27.37;;;14.37;;
32094;SDS011;18608;53.688;10.748;2022-11-12T00:46:39;27.13;;;14.00;;
32094;SDS011;18608;53.688;10.748;2022-11-12T00:49:04;21.67;;;12.73;;
32094;SDS011;18608;53.688;10.748;2022-11-12T00:51:31;35.87;;;14.40;;
32094;SDS011;18608;53.688;10.748;2022-11-12T00:53:56;32.87;;;13.93;;
32094;SDS011;18608;53.688;10.748;2022-11-12T00:56:22;25.23;;;14.20;;
32094;SDS011;18608;53.688;10.748;2022-11-12T00:58:48;26.80;;;14.43;;
32094;SDS011;18608;53.688;10.748;2022-11-12T01:01:14;26.93;;;14.13;;
32094;SDS011;18608;53.688;10.748;2022-11-12T01:03:40;28.10;;;13.80;;
32094;SDS011;18608;53.688;10.748;2022-11-12T01:06:13;31.07;;;14.63;;
32094;SDS011;18608;53.688;10.748;2022-11-12T01:08:42;26.93;;;15.10;;
32094;SDS011;18608;53.688;10.748;2022-11-12T01:11:12;25.53;;;14.50;;
32094;SDS011;18608;53.688;10.748;2022-11-12T01:13:40;23.37;;;13.17;;
32094;SDS011;18608;53.688;10.748;2022-11-12T01:16:17;19.90;;;13.57;;
32094;SDS011;18608;53.688;10.748;2022-11-12T01:18:44;22.30;;;13.87;;
32094;SDS011;18608;53.688;10.748;2022-11-12T01:21:10;27.47;;;14.93;;
32094;SDS011;18608;53.688;10.748;2022-11-12T01:23:37;27.23;;;15.07;;
32094;SDS011;18608;53.688;10.748;2022-11-12T01:26:04;26.07;;;14.90;;
32094;SDS011;18608;53.688;10.748;2022-11-12T01:28:31;26.60;;;15.07;;
32094;SDS011;18608;53.688;10.748;2022-11-12T01:30:57;35.10;;;17.07;;
32094;SDS011;18608;53.688;10.748;2022-11-12T01:33:23;25.27;;;14.60;;
32094;SDS011;18608;53.688;10.748;2022-11-12T01:35:48;30.30;;;15.20;;
32094;SDS011;18608;53.688;10.748;2022-11-12T01:38:14;27.93;;;14.47;;
32094;SDS011;18608;53.688;10.748;2022-11-12T01:40:39;29.87;;;15.33;;
32094;SDS011;18608;53.688;10.748;2022-11-12T01:43:11;36.80;;;16.17;;
32094;SDS011;18608;53.688;10.748;2022-11-12T01:45:42;28.70;;;16.57;;
32094;SDS011;18608;53.688;10.748;2022-11-12T01:48:23;27.93;;;16.40;;
32094;SDS011;18608;53.688;10.748;2022-11-12T01:50:58;29.87;;;16.43;;
32094;SDS011;18608;53.688;10.748;2022-11-12T01:53:27;36.87;;;18.13;;
32094;SDS011;18608;53.688;10.748;2022-11-12T01:55:55;29.23;;;17.80;;
32094;SDS011;18608;53.688;10.748;2022-11-12T01:58:24;25.77;;;16.03;;
32094;SDS011;18608;53.688;10.748;2022-11-12T02:00:53;35.73;;;18.13;;
32094;SDS011;18608;53.688;10.748;2022-11-12T02:03:22;40.57;;;19.90;;
32094;SDS011;18608;53.688;10.748;2022-11-12T02:05:50;31.80;;;15.80;;
32094;SDS011;18608;53.688;10.748;2022-11-12T02:08:20;28.70;;;16.87;;
32094;SDS011;18608;53.688;10.748;2022-11-12T02:10:48;31.13;;;16.83;;
32094;SDS011;18608;53.688;10.748;2022-11-12T02:13:14;32.63;;;16.37;;
32094;SDS011;18608;53.688;10.748;2022-11-12T02:15:59;31.77;;;16.07;;
32094;SDS011;18608;53.688;10.748;2022-11-12T02:18:27;31.60;;;18.73;;
32094;SDS011;18608;53.688;10.748;2022-11-12T02:20:53;33.07;;;16.43;;
32094;SDS011;18608;53.688;10.748;2022-11-12T02:23:21;32.30;;;16.30;;
32094;SDS011;18608;53.688;10.748;2022-11-12T02:25:47;31.80;;;17.40;;
32094;SDS011;18608;53.688;10.748;2022-11-12T02:28:12;35.77;;;16.80;;
32094;SDS011;18608;53.688;10.748;2022-11-12T02:30:40;34.03;;;16.33;;
32094;SDS011;18608;53.688;10.748;2022-11-12T02:33:08;36.23;;;16.60;;
32094;SDS011;18608;53.688;10.748;2022-11-12T02:35:34;50.73;;;18.33;;
32094;SDS011;18608;53.688;10.748;2022-11-12T02:38:00;36.33;;;17.30;;
32094;SDS011;18608;53.688;10.748;2022-11-12T02:40:25;35.70;;;17.47;;
32094;SDS011;18608;53.688;10.748;2022-11-12T02:42:51;39.93;;;18.07;;
32094;SDS011;18608;53.688;10.748;2022-11-12T02:45:17;34.77;;;17.90;;
32094;SDS011;18608;53.688;10.748;2022-11-12T02:47:43;34.70;;;15.87;;
32094;SDS011;18608;53.688;10.748;2022-11-12T02:50:09;29.80;;;17.27;;
32094;SDS011;18608;53.688;10.748;2022-11-12T02:52:36;29.00;;;16.93;;
32094;SDS011;18608;53.688;10.748;2022-11-12T02:55:04;37.77;;;17.27;;
32094;SDS011;18608;53.688;10.748;2022-11-12T02:57:31;30.07;;;16.37;;
32094;SDS011;18608;53.688;10.748;2022-11-12T02:59:56;34.20;;;17.23;;
32094;SDS011;18608;53.688;10.748;2022-11-12T03:02:22;33.40;;;16.53;;
32094;SDS011;18608;53.688;10.748;2022-11-12T03:04:48;33.53;;;18.03;;
32094;SDS011;18608;53.688;10.748;2022-11-12T03:07:13;29.97;;;16.27;;
32094;SDS011;18608;53.688;10.748;2022-11-12T03:09:39;35.30;;;15.20;;
32094;SDS011;18608;53.688;10.748;2022-11-12T03:12:05;35.17;;;16.20;;
32094;SDS011;18608;53.688;10.748;2022-11-12T03:14:30;36.00;;;19.27;;
32094;SDS011;18608;53.688;10.748;2022-11-12T03:16:56;36.57;;;15.90;;
32094;SDS011;18608;53.688;10.748;2022-11-12T03:19:22;37.00;;;16.57;;
32094;SDS011;18608;53.688;10.748;2022-11-12T03:21:47;28.67;;;15.63;;
32094;SDS011;18608;53.688;10.748;2022-11-12T03:24:13;29.27;;;17.57;;
32094;SDS011;18608;53.688;10.748;2022-11-12T03:26:39;28.03;;;16.20;;
32094;SDS011;18608;53.688;10.748;2022-11-12T03:29:04;30.13;;;17.47;;
32094;SDS011;18608;53.688;10.748;2022-11-12T03:31:30;30.27;;;16.73;;
32094;SDS011;18608;53.688;10.748;2022-11-12T03:33:56;32.20;;;16.23;;
32094;SDS011;18608;53.688;10.748;2022-11-12T03:36:21;29.87;;;17.70;;
32094;SDS011;18608;53.688;10.748;2022-11-12T03:38:47;35.27;;;15.87;;
32094;SDS011;18608;53.688;10.748;2022-11-12T03:41:13;37.10;;;17.83;;
32094;SDS011;18608;53.688;10.748;2022-11-12T03:43:38;34.73;;;17.67;;
32094;SDS011;18608;53.688;10.748;2022-11-12T03:46:04;28.90;;;15.80;;
32094;SDS011;18608;53.688;10.748;2022-11-12T03:48:30;43.80;;;17.30;;
32094;SDS011;18608;53.688;10.748;2022-11-12T03:50:58;28.10;;;15.10;;
32094;SDS011;18608;53.688;10.748;2022-11-12T03:53:24;35.77;;;18.57;;
32094;SDS011;18608;53.688;10.748;2022-11-12T03:55:50;33.40;;;17.10;;
32094;SDS011;18608;53.688;10.748;2022-11-12T03:58:16;28.00;;;16.53;;
32094;SDS011;18608;53.688;10.748;2022-11-12T04:00:42;27.37;;;16.70;;
32094;SDS011;18608;53.688;10.748;2022-11-12T04:03:08;32.07;;;16.37;;
32094;SDS011;18608;53.688;10.748;2022-11-12T04:05:33;34.37;;;16.63;;
32094;SDS011;18608;53.688;10.748;2022-11-12T04:08:19;29.70;;;16.13;;
32094;SDS011;18608;53.688;10.748;2022-11-12T04:11:01;28.00;;;16.57;;
32094;SDS011;18608;53.688;10.748;2022-11-12T04:13:28;31.97;;;16.20;;
32094;SDS011;18608;53.688;10.748;2022-11-12T04:18:40;24.33;;;16.00;;
32094;SDS011;18608;53.688;10.748;2022-11-12T04:21:27;29.50;;;16.23;;
32094;SDS011;18608;53.688;10.748;2022-11-12T04:27:26;32.57;;;17.70;;
32094;SDS011;18608;53.688;10.748;2022-11-12T04:29:53;24.50;;;15.40;;
32094;SDS011;18608;53.688;10.748;2022-11-12T04:32:39;29.53;;;16.83;;
32094;SDS011;18608;53.688;10.748;2022-11-12T04:35:11;37.40;;;15.20;;
32094;SDS011;18608;53.688;10.748;2022-11-12T04:37:37;24.47;;;15.47;;
32094;SDS011;18608;53.688;10.748;2022-11-12T04:40:10;27.53;;;15.87;;
32094;SDS011;18608;53.688;10.748;2022-11-12T04:42:59;28.83;;;16.53;;
32094;SDS011;18608;53.688;10.748;2022-11-12T04:45:44;26.07;;;15.60;;
32094;SDS011;18608;53.688;10.748;2022-11-12T04:48:12;28.77;;;16.07;;
32094;SDS011;18608;53.688;10.748;2022-11-12T04:50:38;24.47;;;15.63;;
32094;SDS011;18608;53.688;10.748;2022-11-12T04:53:04;27.70;;;15.40;;
32094;SDS011;18608;53.688;10.748;2022-11-12T04:55:30;24.43;;;14.83;;
32094;SDS011;18608;53.688;10.748;2022-11-12T04:57:56;24.47;;;13.90;;
32094;SDS011;18608;53.688;10.748;2022-11-12T05:00:22;21.30;;;14.37;;
32094;SDS011;18608;53.688;10.748;2022-11-12T05:02:48;23.40;;;14.17;;
32094;SDS011;18608;53.688;10.748;2022-11-12T05:05:14;27.43;;;16.43;;
32094;SDS011;18608;53.688;10.748;2022-11-12T05:07:40;30.07;;;15.10;;
32094;SDS011;18608;53.688;10.748;2022-11-12T05:10:06;29.93;;;15.77;;
32094;SDS011;18608;53.688;10.748;2022-11-12T05:12:32;28.27;;;15.80;;
32094;SDS011;18608;53.688;10.748;2022-11-12T05:14:58;27.43;;;16.50;;
32094;SDS011;18608;53.688;10.748;2022-11-12T05:17:23;24.83;;;15.20;;
32094;SDS011;18608;53.688;10.748;2022-11-12T05:19:49;21.93;;;15.10;;
32094;SDS011;18608;53.688;10.748;2022-11-12T05:22:15;24.83;;;16.20;;
32094;SDS011;18608;53.688;10.748;2022-11-12T05:24:41;26.67;;;14.57;;
32094;SDS011;18608;53.688;10.748;2022-11-12T05:27:12;25.30;;;16.03;;
32094;SDS011;18608;53.688;10.748;2022-11-12T05:29:40;26.03;;;16.00;;
32094;SDS011;18608;53.688;10.748;2022-11-12T05:32:07;24.60;;;15.40;;
32094;SDS011;18608;53.688;10.748;2022-11-12T05:34:34;30.00;;;16.03;;
32094;SDS011;18608;53.688;10.748;2022-11-12T05:37:01;36.57;;;17.60;;
32094;SDS011;18608;53.688;10.748;2022-11-12T05:39:28;33.30;;;17.37;;
32094;SDS011;18608;53.688;10.748;2022-11-12T05:41:54;24.80;;;15.90;;
32094;SDS011;18608;53.688;10.748;2022-11-12T05:44:20;28.90;;;16.50;;
32094;SDS011;18608;53.688;10.748;2022-11-12T05:46:46;28.90;;;16.83;;
32094;SDS011;18608;53.688;10.748;2022-11-12T05:49:12;28.80;;;16.20;;
32094;SDS011;18608;53.688;10.748;2022-11-12T05:51:38;25.07;;;15.93;;
32094;SDS011;18608;53.688;10.748;2022-11-12T05:54:04;32.30;;;15.33;;
32094;SDS011;18608;53.688;10.748;2022-11-12T05:56:30;29.90;;;16.30;;
32094;SDS011;18608;53.688;10.748;2022-11-12T05:58:55;26.73;;;15.03;;
32094;SDS011;18608;53.688;10.748;2022-11-12T06:01:21;25.93;;;16.17;;
32094;SDS011;18608;53.688;10.748;2022-11-12T06:03:47;33.90;;;16.20;;
32094;SDS011;18608;53.688;10.748;2022-11-12T06:06:13;23.57;;;15.97;;
32094;SDS011;18608;53.688;10.748;2022-11-12T06:08:39;33.73;;;16.80;;
32094;SDS011;18608;53.688;10.748;2022-11-12T06:11:04;28.43;;;15.77;;
32094;SDS011;18608;53.688;10.748;2022-11-12T06:13:30;29.27;;;15.50;;
32094;SDS011;18608;53.688;10.748;2022-11-12T06:15:56;26.90;;;14.93;;
32094;SDS011;18608;53.688;10.748;2022-11-12T06:18:22;30.53;;;16.50;;
32094;SDS011;18608;53.688;10.748;2022-11-12T06:20:49;28.03;;;16.50;;
32094;SDS011;18608;53.688;10.748;2022-11-12T06:23:35;29.60;;;15.30;;
32094;SDS011;18608;53.688;10.748;2022-11-12T06:26:01;24.07;;;15.00;;
32094;SDS011;18608;53.688;10.748;2022-11-12T06:28:28;32.10;;;16.20;;
32094;SDS011;18608;53.688;10.748;2022-11-12T06:30:53;26.57;;;16.07;;
32094;SDS011;18608;53.688;10.748;2022-11-12T06:33:19;32.13;;;16.37;;
32094;SDS011;18608;53.688;10.748;2022-11-12T06:35:45;35.60;;;19.40;;
32094;SDS011;18608;53.688;10.748;2022-11-12T06:38:11;31.20;;;16.47;;
32094;SDS011;18608;53.688;10.748;2022-11-12T06:40:36;32.40;;;17.17;;
32094;SDS011;18608;53.688;10.748;2022-11-12T06:43:02;31.73;;;18.97;;
32094;SDS011;18608;53.688;10.748;2022-11-12T06:45:28;28.53;;;16.70;;
32094;SDS011;18608;53.688;10.748;2022-11-12T06:47:57;31.10;;;17.07;;
32094;SDS011;18608;53.688;10.748;2022-11-12T06:50:23;36.07;;;18.60;;
32094;SDS011;18608;53.688;10.748;2022-11-12T06:52:49;33.90;;;18.37;;
32094;SDS011;18608;53.688;10.748;2022-11-12T06:55:15;32.00;;;17.97;;
32094;SDS011;18608;53.688;10.748;2022-11-12T06:57:40;32.00;;;17.93;;
32094;SDS011;18608;53.688;10.748;2022-11-12T07:00:06;29.40;;;16.77;;
32094;SDS011;18608;53.688;10.748;2022-11-12T07:02:34;32.97;;;19.40;;
32094;SDS011;18608;53.688;10.748;2022-11-12T07:05:01;38.43;;;19.93;;
32094;SDS011;18608;53.688;10.748;2022-11-12T07:07:27;28.30;;;18.30;;
32094;SDS011;18608;53.688;10.748;2022-11-12T07:09:53;28.23;;;17.30;;
32094;SDS011;18608;53.688;10.748;2022-11-12T07:12:18;29.77;;;18.83;;
32094;SDS011;18608;53.688;10.748;2022-11-12T07:14:44;35.80;;;18.23;;
32094;SDS011;18608;53.688;10.748;2022-11-12T07:17:10;30.77;;;17.70;;
32094;SDS011;18608;53.688;10.748;2022-11-12T07:19:36;35.40;;;19.93;;
32094;SDS011;18608;53.688;10.748;2022-11-12T07:22:01;29.57;;;19.03;;
32094;SDS011;18608;53.688;10.748;2022-11-12T07:24:27;37.90;;;17.60;;
32094;SDS011;18608;53.688;10.748;2022-11-12T07:26:53;31.70;;;19.63;;
32094;SDS011;18608;53.688;10.748;2022-11-12T07:29:19;33.77;;;19.00;;
32094;SDS011;18608;53.688;10.748;2022-11-12T07:31:44;29.53;;;18.93;;
32094;SDS011;18608;53.688;10.748;2022-11-12T07:34:10;36.50;;;18.43;;
32094;SDS011;18608;53.688;10.748;2022-11-12T07:36:36;28.03;;;18.40;;
32094;SDS011;18608;53.688;10.748;2022-11-12T07:39:01;28.93;;;17.77;;
32094;SDS011;18608;53.688;10.748;2022-11-12T07:41:27;33.20;;;19.20;;
32094;SDS011;18608;53.688;10.748;2022-11-12T07:43:53;37.37;;;22.03;;
32094;SDS011;18608;53.688;10.748;2022-11-12T07:46:20;36.70;;;19.63;;
32094;SDS011;18608;53.688;10.748;2022-11-12T07:48:50;38.07;;;19.50;;
32094;SDS011;18608;53.688;10.748;2022-11-12T07:51:17;37.27;;;17.57;;
32094;SDS011;18608;53.688;10.748;2022-11-12T07:53:45;32.80;;;19.63;;
32094;SDS011;18608;53.688;10.748;2022-11-12T07:56:12;33.43;;;19.57;;
32094;SDS011;18608;53.688;10.748;2022-11-12T07:58:39;30.50;;;17.70;;
32094;SDS011;18608;53.688;10.748;2022-11-12T08:01:09;36.43;;;18.53;;
32094;SDS011;18608;53.688;10.748;2022-11-12T08:03:35;26.63;;;17.27;;
32094;SDS011;18608;53.688;10.748;2022-11-12T08:06:01;36.33;;;18.23;;
32094;SDS011;18608;53.688;10.748;2022-11-12T08:08:26;29.67;;;16.83;;
32094;SDS011;18608;53.688;10.748;2022-11-12T08:10:53;29.90;;;17.50;;
32094;SDS011;18608;53.688;10.748;2022-11-12T08:13:20;27.50;;;17.60;;
32094;SDS011;18608;53.688;10.748;2022-11-12T08:15:46;33.87;;;18.93;;
32094;SDS011;18608;53.688;10.748;2022-11-12T08:18:11;37.43;;;18.17;;
32094;SDS011;18608;53.688;10.748;2022-11-12T08:20:37;30.47;;;17.73;;
32094;SDS011;18608;53.688;10.748;2022-11-12T08:23:03;29.07;;;16.60;;
32094;SDS011;18608;53.688;10.748;2022-11-12T08:25:29;26.40;;;16.80;;
32094;SDS011;18608;53.688;10.748;2022-11-12T08:27:55;23.10;;;14.83;;
32094;SDS011;18608;53.688;10.748;2022-11-12T08:30:22;27.80;;;15.50;;
32094;SDS011;18608;53.688;10.748;2022-11-12T08:32:53;27.77;;;16.30;;
32094;SDS011;18608;53.688;10.748;2022-11-12T08:35:20;25.93;;;16.23;;
32094;SDS011;18608;53.688;10.748;2022-11-12T08:37:45;26.43;;;15.87;;
32094;SDS011;18608;53.688;10.748;2022-11-12T08:40:11;22.60;;;14.03;;
32094;SDS011;18608;53.688;10.748;2022-11-12T08:42:37;27.40;;;14.77;;
32094;SDS011;18608;53.688;10.748;2022-11-12T08:45:03;25.13;;;14.27;;
32094;SDS011;18608;53.688;10.748;2022-11-12T08:47:29;21.40;;;13.30;;
32094;SDS011;18608;53.688;10.748;2022-11-12T08:49:54;30.00;;;15.67;;
32094;SDS011;18608;53.688;10.748;2022-11-12T08:52:20;28.90;;;14.90;;
32094;SDS011;18608;53.688;10.748;2022-11-12T08:54:46;24.20;;;13.93;;
32094;SDS011;18608;53.688;10.748;2022-11-12T08:57:11;20.20;;;13.43;;
32094;SDS011;18608;53.688;10.748;2022-11-12T08:59:37;21.47;;;13.57;;
32094;SDS011;18608;53.688;10.748;2022-11-12T09:02:03;26.00;;;13.47;;
32094;SDS011;18608;53.688;10.748;2022-11-12T09:04:30;23.07;;;14.73;;
32094;SDS011;18608;53.688;10.748;2022-11-12T09:06:55;25.00;;;14.50;;
32094;SDS011;18608;53.688;10.748;2022-11-12T09:09:21;30.23;;;13.20;;
32094;SDS011;18608;53.688;10.748;2022-11-12T09:11:47;23.13;;;13.83;;
32094;SDS011;18608;53.688;10.748;2022-11-12T09:14:13;21.07;;;13.00;;
32094;SDS011;18608;53.688;10.748;2022-11-12T09:16:38;22.93;;;13.50;;
32094;SDS011;18608;53.688;10.748;2022-11-12T09:19:04;28.23;;;13.20;;
32094;SDS011;18608;53.688;10.748;2022-11-12T09:21:30;19.93;;;12.50;;
32094;SDS011;18608;53.688;10.748;2022-11-12T09:23:55;23.27;;;13.23;;
32094;SDS011;18608;53.688;10.748;2022-11-12T09:26:21;21.20;;;12.17;;
32094;SDS011;18608;53.688;10.748;2022-11-12T09:28:46;20.20;;;12.67;;
32094;SDS011;18608;53.688;10.748;2022-11-12T09:31:12;20.10;;;11.67;;
32094;SDS011;18608;53.688;10.748;2022-11-12T09:33:38;25.93;;;12.17;;
32094;SDS011;18608;53.688;10.748;2022-11-12T09:36:03;21.73;;;12.43;;
32094;SDS011;18608;53.688;10.748;2022-11-12T09:38:29;19.77;;;12.07;;
32094;SDS011;18608;53.688;10.748;2022-11-12T09:41:00;22.30;;;11.97;;
32094;SDS011;18608;53.688;10.748;2022-11-12T09:43:30;23.63;;;12.37;;
32094;SDS011;18608;53.688;10.748;2022-11-12T09:49:09;21.50;;;12.67;;
32094;SDS011;18608;53.688;10.748;2022-11-12T09:51:38;16.90;;;10.70;;
32094;SDS011;18608;53.688;10.748;2022-11-12T09:54:17;19.97;;;11.80;;
32094;SDS011;18608;53.688;10.748;2022-11-12T09:56:52;18.60;;;12.73;;
32094;SDS011;18608;53.688;10.748;2022-11-12T09:59:19;21.77;;;11.20;;
32094;SDS011;18608;53.688;10.748;2022-11-12T10:07:03;21.57;;;12.60;;
32094;SDS011;18608;53.688;10.748;2022-11-12T10:09:40;18.53;;;11.13;;
32094;SDS011;18608;53.688;10.748;2022-11-12T10:17:50;26.87;;;12.70;;
32094;SDS011;18608;53.688;10.748;2022-11-12T10:20:26;14.07;;;9.40;;
32094;SDS011;18608;53.688;10.748;2022-11-12T10:25:37;16.60;;;10.87;;
32094;SDS011;18608;53.688;10.748;2022-11-12T10:28:13;15.43;;;9.33;;
32094;SDS011;18608;53.688;10.748;2022-11-12T10:30:49;13.00;;;9.10;;
32094;SDS011;18608;53.688;10.748;2022-11-12T10:33:17;14.70;;;9.40;;
32094;SDS011;18608;53.688;10.748;2022-11-12T10:35:43;13.33;;;8.93;;
32094;SDS011;18608;53.688;10.748;2022-11-12T10:38:13;13.50;;;9.57;;
32094;SDS011;18608;53.688;10.748;2022-11-12T10:40:44;16.03;;;10.80;;
32094;SDS011;18608;53.688;10.748;2022-11-12T10:45:43;12.17;;;8.27;;
32094;SDS011;18608;53.688;10.748;2022-11-12T10:50:48;19.93;;;10.67;;
32094;SDS011;18608;53.688;10.748;2022-11-12T10:53:14;13.20;;;8.63;;
32094;SDS011;18608;53.688;10.748;2022-11-12T10:56:00;18.90;;;10.17;;
32094;SDS011;18608;53.688;10.748;2022-11-12T10:58:27;32.33;;;18.37;;
32094;SDS011;18608;53.688;10.748;2022-11-12T11:01:03;22.10;;;13.10;;
32094;SDS011;18608;53.688;10.748;2022-11-12T11:06:02;19.43;;;9.60;;
32094;SDS011;18608;53.688;10.748;2022-11-12T11:08:32;14.13;;;9.00;;
32094;SDS011;18608;53.688;10.748;2022-11-12T11:11:13;12.77;;;8.43;;
32094;SDS011;18608;53.688;10.748;2022-11-12T11:13:55;14.67;;;9.10;;
32094;SDS011;18608;53.688;10.748;2022-11-12T11:16:32;17.53;;;9.70;;
32094;SDS011;18608;53.688;10.748;2022-11-12T11:19:16;15.80;;;8.80;;
32094;SDS011;18608;53.688;10.748;2022-11-12T11:29:48;13.10;;;8.27;;
32094;SDS011;18608;53.688;10.748;2022-11-12T11:37:30;13.23;;;9.27;;
32094;SDS011;18608;53.688;10.748;2022-11-12T11:48:55;15.63;;;9.07;;
32094;SDS011;18608;53.688;10.748;2022-11-12T11:57:03;21.33;;;8.97;;
32094;SDS011;18608;53.688;10.748;2022-11-12T12:00:00;15.67;;;8.10;;
32094;SDS011;18608;53.688;10.748;2022-11-12T12:02:36;16.53;;;8.63;;
32094;SDS011;18608;53.688;10.748;2022-11-12T12:08:07;8.60;;;7.63;;
32094;SDS011;18608;53.688;10.748;2022-11-12T12:21:34;14.03;;;7.17;;
32094;SDS011;18608;53.688;10.748;2022-11-12T12:24:11;14.77;;;8.90;;
32094;SDS011;18608;53.688;10.748;2022-11-12T12:26:44;14.17;;;8.73;;
32094;SDS011;18608;53.688;10.748;2022-11-12T12:32:13;13.30;;;8.17;;
32094;SDS011;18608;53.688;10.748;2022-11-12T12:34:57;14.93;;;6.87;;
32094;SDS011;18608;53.688;10.748;2022-11-12T12:37:32;18.63;;;7.33;;
32094;SDS011;18608;53.688;10.748;2022-11-12T12:40:15;13.90;;;7.27;;
32094;SDS011;18608;53.688;10.748;2022-11-12T12:47:59;11.23;;;7.33;;
32094;SDS011;18608;53.688;10.748;2022-11-12T12:50:28;12.50;;;7.40;;
32094;SDS011;18608;53.688;10.748;2022-11-12T12:55:46;14.67;;;7.30;;
32094;SDS011;18608;53.688;10.748;2022-11-12T12:58:14;16.50;;;7.60;;
32094;SDS011;18608;53.688;10.748;2022-11-12T13:00:40;10.47;;;7.93;;
32094;SDS011;18608;53.688;10.748;2022-11-12T13:03:12;10.20;;;7.43;;
32094;SDS011;18608;53.688;10.748;2022-11-12T13:06:04;12.00;;;7.50;;
32094;SDS011;18608;53.688;10.748;2022-11-12T13:08:33;11.03;;;6.90;;
32094;SDS011;18608;53.688;10.748;2022-11-12T13:11:01;10.20;;;6.73;;
32094;SDS011;18608;53.688;10.748;2022-11-12T13:13:31;9.60;;;6.90;;
32094;SDS011;18608;53.688;10.748;2022-11-12T13:15:58;17.80;;;8.40;;
32094;SDS011;18608;53.688;10.748;2022-11-12T13:21:10;9.73;;;6.40;;
32094;SDS011;18608;53.688;10.748;2022-11-12T13:31:47;8.10;;;5.70;;
32094;SDS011;18608;53.688;10.748;2022-11-12T13:34:17;12.50;;;5.63;;
32094;SDS011;18608;53.688;10.748;2022-11-12T13:36:54;7.90;;;5.23;;
32094;SDS011;18608;53.688;10.748;2022-11-12T13:39:26;11.33;;;5.37;;
32094;SDS011;18608;53.688;10.748;2022-11-12T13:41:58;7.07;;;4.60;;
32094;SDS011;18608;53.688;10.748;2022-11-12T13:44:51;6.13;;;4.50;;
32094;SDS011;18608;53.688;10.748;2022-11-12T13:47:17;13.90;;;5.30;;
32094;SDS011;18608;53.688;10.748;2022-11-12T13:49:46;7.00;;;4.80;;
32094;SDS011;18608;53.688;10.748;2022-11-12T13:52:13;6.13;;;4.90;;
32094;SDS011;18608;53.688;10.748;2022-11-12T13:54:39;12.50;;;6.10;;
32094;SDS011;18608;53.688;10.748;2022-11-12T13:59:45;11.53;;;6.30;;
32094;SDS011;18608;53.688;10.748;2022-11-12T14:02:17;9.93;;;6.33;;
32094;SDS011;18608;53.688;10.748;2022-11-12T14:04:48;8.30;;;4.43;;
32094;SDS011;18608;53.688;10.748;2022-11-12T14:09:53;11.43;;;5.97;;
32094;SDS011;18608;53.688;10.748;2022-11-12T14:12:55;8.83;;;5.83;;
32094;SDS011;18608;53.688;10.748;2022-11-12T14:15:39;11.97;;;5.50;;
32094;SDS011;18608;53.688;10.748;2022-11-12T14:21:10;9.50;;;6.30;;
32094;SDS011;18608;53.688;10.748;2022-11-12T14:23:45;11.33;;;4.83;;
32094;SDS011;18608;53.688;10.748;2022-11-12T14:26:13;11.47;;;5.50;;
32094;SDS011;18608;53.688;10.748;2022-11-12T14:29:05;7.87;;;5.57;;
32094;SDS011;18608;53.688;10.748;2022-11-12T14:31:30;5.87;;;4.90;;
32094;SDS011;18608;53.688;10.748;2022-11-12T14:34:17;7.57;;;4.93;;
32094;SDS011;18608;53.688;10.748;2022-11-12T14:36:58;9.60;;;6.43;;
32094;SDS011;18608;53.688;10.748;2022-11-12T14:39:26;13.53;;;7.63;;
32094;SDS011;18608;53.688;10.748;2022-11-12T14:41:53;13.33;;;6.67;;
32094;SDS011;18608;53.688;10.748;2022-11-12T14:44:42;11.03;;;6.93;;
32094;SDS011;18608;53.688;10.748;2022-11-12T14:47:07;12.20;;;7.33;;
32094;SDS011;18608;53.688;10.748;2022-11-12T14:49:41;9.83;;;5.60;;
32094;SDS011;18608;53.688;10.748;2022-11-12T14:52:11;11.10;;;6.83;;
32094;SDS011;18608;53.688;10.748;2022-11-12T14:54:43;10.60;;;6.07;;
32094;SDS011;18608;53.688;10.748;2022-11-12T14:57:37;13.27;;;7.20;;
32094;SDS011;18608;53.688;10.748;2022-11-12T15:00:15;8.83;;;5.47;;
32094;SDS011;18608;53.688;10.748;2022-11-12T15:02:45;13.10;;;6.37;;
32094;SDS011;18608;53.688;10.748;2022-11-12T15:05:16;11.17;;;7.00;;
32094;SDS011;18608;53.688;10.748;2022-11-12T15:10:30;14.00;;;7.80;;
32094;SDS011;18608;53.688;10.748;2022-11-12T15:13:14;14.73;;;8.30;;
32094;SDS011;18608;53.688;10.748;2022-11-12T15:15:51;10.40;;;7.47;;
32094;SDS011;18608;53.688;10.748;2022-11-12T15:18:20;19.43;;;9.53;;
32094;SDS011;18608;53.688;10.748;2022-11-12T15:23:51;19.17;;;9.20;;
32094;SDS011;18608;53.688;10.748;2022-11-12T15:26:31;21.10;;;9.60;;
32094;SDS011;18608;53.688;10.748;2022-11-12T15:34:20;22.87;;;8.20;;
32094;SDS011;18608;53.688;10.748;2022-11-12T15:36:48;13.67;;;9.07;;
32094;SDS011;18608;53.688;10.748;2022-11-12T15:39:14;13.60;;;8.20;;
32094;SDS011;18608;53.688;10.748;2022-11-12T15:41:40;11.93;;;8.20;;
32094;SDS011;18608;53.688;10.748;2022-11-12T15:44:07;13.53;;;8.20;;
32094;SDS011;18608;53.688;10.748;2022-11-12T15:46:34;11.40;;;8.40;;
32094;SDS011;18608;53.688;10.748;2022-11-12T15:49:01;13.13;;;8.37;;
32094;SDS011;18608;53.688;10.748;2022-11-12T15:51:27;17.27;;;9.43;;
32094;SDS011;18608;53.688;10.748;2022-11-12T15:53:53;14.87;;;8.03;;
32094;SDS011;18608;53.688;10.748;2022-11-12T15:56:18;13.53;;;7.80;;
32094;SDS011;18608;53.688;10.748;2022-11-12T15:58:47;11.00;;;7.63;;
32094;SDS011;18608;53.688;10.748;2022-11-12T16:01:13;13.00;;;8.07;;
32094;SDS011;18608;53.688;10.748;2022-11-12T16:03:39;16.50;;;7.97;;
32094;SDS011;18608;53.688;10.748;2022-11-12T16:06:04;15.20;;;8.50;;
32094;SDS011;18608;53.688;10.748;2022-11-12T16:08:30;15.00;;;9.67;;
32094;SDS011;18608;53.688;10.748;2022-11-12T16:10:56;22.07;;;9.43;;
32094;SDS011;18608;53.688;10.748;2022-11-12T16:13:31;12.60;;;7.93;;
32094;SDS011;18608;53.688;10.748;2022-11-12T16:15:58;20.80;;;8.47;;